sensor_id;sensor_type;location;lat;lon;timestamp;P1;durP1;ratioP1;P2;durP2;ratioP2
61250;SDS011;47126;47.508;8.590;2023-07-29T00:02:20;9.05;;;5.40;;
61250;SDS011;47126;47.508;8.590;2023-07-29T00:04:47;12.50;;;5.18;;
61250;SDS011;47126;47.508;8.590;2023-07-29T00:07:13;10.77;;;6.45;;
61250;SDS011;47126;47.508;8.590;2023-07-29T00:09:39;8.57;;;5.22;;
61250;SDS011;47126;47.508;8.590;2023-07-29T00:12:05;8.30;;;4.70;;
61250;SDS011;47126;47.508;8.590;2023-07-29T00:14:31;9.80;;;5.43;;
61250;SDS011;47126;47.508;8.590;2023-07-29T00:16:57;11.35;;;4.65;;
61250;SDS011;47126;47.508;8.590;2023-07-29T00:19:23;7.55;;;4.68;;
61250;SDS011;47126;47.508;8.590;2023-07-29T00:21:49;9.98;;;4.90;;
61250;SDS011;47126;47.508;8.590;2023-07-29T00:24:15;8.30;;;4.60;;
61250;SDS011;47126;47.508;8.590;2023-07-29T00:26:41;8.18;;;4.82;;
61250;SDS011;47126;47.508;8.590;2023-07-29T00:29:07;11.02;;;5.65;;
61250;SDS011;47126;47.508;8.590;2023-07-29T00:31:33;9.18;;;5.28;;
61250;SDS011;47126;47.508;8.590;2023-07-29T00:33:59;9.80;;;5.07;;
61250;SDS011;47126;47.508;8.590;2023-07-29T00:36:25;8.77;;;4.80;;
61250;SDS011;47126;47.508;8.590;2023-07-29T00:38:51;10.82;;;5.97;;
61250;SDS011;47126;47.508;8.590;2023-07-29T00:41:19;10.27;;;5.15;;
61250;SDS011;47126;47.508;8.590;2023-07-29T00:43:46;11.00;;;6.18;;
61250;SDS011;47126;47.508;8.590;2023-07-29T00:46:12;9.02;;;5.18;;
61250;SDS011;47126;47.508;8.590;2023-07-29T00:48:38;12.07;;;4.68;;
61250;SDS011;47126;47.508;8.590;2023-07-29T00:51:04;8.23;;;4.70;;
61250;SDS011;47126;47.508;8.590;2023-07-29T00:53:31;9.18;;;5.15;;
61250;SDS011;47126;47.508;8.590;2023-07-29T00:55:57;14.45;;;5.60;;
61250;SDS011;47126;47.508;8.590;2023-07-29T00:58:23;8.70;;;5.32;;
61250;SDS011;47126;47.508;8.590;2023-07-29T01:00:49;11.55;;;5.60;;
61250;SDS011;47126;47.508;8.590;2023-07-29T01:03:16;8.68;;;5.18;;
61250;SDS011;47126;47.508;8.590;2023-07-29T01:05:50;11.25;;;5.30;;
61250;SDS011;47126;47.508;8.590;2023-07-29T01:08:21;11.88;;;5.47;;
61250;SDS011;47126;47.508;8.590;2023-07-29T01:13:41;51.28;;;6.82;;
61250;SDS011;47126;47.508;8.590;2023-07-29T01:16:12;7.18;;;4.38;;
61250;SDS011;47126;47.508;8.590;2023-07-29T01:18:57;10.40;;;4.65;;
61250;SDS011;47126;47.508;8.590;2023-07-29T01:21:25;10.50;;;4.45;;
61250;SDS011;47126;47.508;8.590;2023-07-29T01:23:52;8.43;;;4.40;;
61250;SDS011;47126;47.508;8.590;2023-07-29T01:26:18;10.52;;;5.38;;
61250;SDS011;47126;47.508;8.590;2023-07-29T01:28:44;12.40;;;5.75;;
61250;SDS011;47126;47.508;8.590;2023-07-29T01:31:54;9.98;;;5.47;;
61250;SDS011;47126;47.508;8.590;2023-07-29T01:34:13;11.02;;;4.88;;
61250;SDS011;47126;47.508;8.590;2023-07-29T01:36:42;45.72;;;8.88;;
61250;SDS011;47126;47.508;8.590;2023-07-29T01:39:08;23.25;;;8.38;;
61250;SDS011;47126;47.508;8.590;2023-07-29T01:41:36;17.08;;;8.73;;
61250;SDS011;47126;47.508;8.590;2023-07-29T01:44:02;14.68;;;7.47;;
61250;SDS011;47126;47.508;8.590;2023-07-29T01:46:29;14.02;;;8.50;;
61250;SDS011;47126;47.508;8.590;2023-07-29T01:48:55;25.80;;;8.93;;
61250;SDS011;47126;47.508;8.590;2023-07-29T01:51:21;19.13;;;8.93;;
61250;SDS011;47126;47.508;8.590;2023-07-29T01:53:47;35.38;;;8.88;;
61250;SDS011;47126;47.508;8.590;2023-07-29T01:56:13;19.60;;;9.80;;
61250;SDS011;47126;47.508;8.590;2023-07-29T01:58:39;15.00;;;9.00;;
61250;SDS011;47126;47.508;8.590;2023-07-29T02:01:05;16.55;;;9.40;;
61250;SDS011;47126;47.508;8.590;2023-07-29T02:03:31;18.30;;;9.95;;
61250;SDS011;47126;47.508;8.590;2023-07-29T02:05:57;20.33;;;10.50;;
61250;SDS011;47126;47.508;8.590;2023-07-29T02:08:23;19.02;;;10.10;;
61250;SDS011;47126;47.508;8.590;2023-07-29T02:10:49;16.15;;;9.05;;
61250;SDS011;47126;47.508;8.590;2023-07-29T02:13:15;14.60;;;8.70;;
61250;SDS011;47126;47.508;8.590;2023-07-29T02:15:41;15.55;;;8.07;;
61250;SDS011;47126;47.508;8.590;2023-07-29T02:18:07;15.18;;;9.02;;
61250;SDS011;47126;47.508;8.590;2023-07-29T02:20:33;16.60;;;9.70;;
61250;SDS011;47126;47.508;8.590;2023-07-29T02:22:59;16.85;;;9.55;;
61250;SDS011;47126;47.508;8.590;2023-07-29T02:25:25;16.10;;;9.20;;
61250;SDS011;47126;47.508;8.590;2023-07-29T02:27:51;14.10;;;9.13;;
61250;SDS011;47126;47.508;8.590;2023-07-29T02:30:17;14.70;;;8.63;;
61250;SDS011;47126;47.508;8.590;2023-07-29T02:32:43;13.15;;;8.20;;
61250;SDS011;47126;47.508;8.590;2023-07-29T02:35:09;13.75;;;8.45;;
61250;SDS011;47126;47.508;8.590;2023-07-29T02:37:35;13.40;;;7.97;;
61250;SDS011;47126;47.508;8.590;2023-07-29T02:40:01;58.30;;;9.98;;
61250;SDS011;47126;47.508;8.590;2023-07-29T02:42:28;12.10;;;7.43;;
61250;SDS011;47126;47.508;8.590;2023-07-29T02:44:54;13.75;;;7.97;;
61250;SDS011;47126;47.508;8.590;2023-07-29T02:47:20;14.32;;;8.35;;
61250;SDS011;47126;47.508;8.590;2023-07-29T02:49:46;12.57;;;8.57;;
61250;SDS011;47126;47.508;8.590;2023-07-29T02:52:12;14.48;;;8.20;;
61250;SDS011;47126;47.508;8.590;2023-07-29T02:54:38;12.68;;;7.50;;
61250;SDS011;47126;47.508;8.590;2023-07-29T02:57:04;12.68;;;8.05;;
61250;SDS011;47126;47.508;8.590;2023-07-29T02:59:30;12.68;;;8.55;;
61250;SDS011;47126;47.508;8.590;2023-07-29T03:01:56;16.52;;;9.25;;
61250;SDS011;47126;47.508;8.590;2023-07-29T03:04:22;14.63;;;10.50;;
61250;SDS011;47126;47.508;8.590;2023-07-29T03:06:48;12.73;;;8.25;;
61250;SDS011;47126;47.508;8.590;2023-07-29T03:09:14;13.73;;;7.75;;
61250;SDS011;47126;47.508;8.590;2023-07-29T03:11:40;11.27;;;7.80;;
61250;SDS011;47126;47.508;8.590;2023-07-29T03:14:06;15.77;;;8.10;;
61250;SDS011;47126;47.508;8.590;2023-07-29T03:16:32;14.38;;;8.10;;
61250;SDS011;47126;47.508;8.590;2023-07-29T03:18:58;15.18;;;8.35;;
61250;SDS011;47126;47.508;8.590;2023-07-29T03:21:25;12.35;;;7.35;;
61250;SDS011;47126;47.508;8.590;2023-07-29T03:23:51;15.90;;;7.68;;
61250;SDS011;47126;47.508;8.590;2023-07-29T03:26:17;13.30;;;7.55;;
61250;SDS011;47126;47.508;8.590;2023-07-29T03:28:43;17.20;;;8.73;;
61250;SDS011;47126;47.508;8.590;2023-07-29T03:31:09;14.52;;;8.55;;
61250;SDS011;47126;47.508;8.590;2023-07-29T03:33:35;16.27;;;8.85;;
61250;SDS011;47126;47.508;8.590;2023-07-29T03:36:02;14.35;;;8.93;;
61250;SDS011;47126;47.508;8.590;2023-07-29T03:38:28;17.38;;;8.35;;
61250;SDS011;47126;47.508;8.590;2023-07-29T03:40:54;13.20;;;8.23;;
61250;SDS011;47126;47.508;8.590;2023-07-29T03:43:20;15.48;;;7.90;;
61250;SDS011;47126;47.508;8.590;2023-07-29T03:45:46;13.30;;;8.02;;
61250;SDS011;47126;47.508;8.590;2023-07-29T03:48:12;15.70;;;7.70;;
61250;SDS011;47126;47.508;8.590;2023-07-29T03:50:38;12.50;;;8.13;;
61250;SDS011;47126;47.508;8.590;2023-07-29T03:53:04;14.02;;;7.75;;
61250;SDS011;47126;47.508;8.590;2023-07-29T03:55:30;12.43;;;7.80;;
61250;SDS011;47126;47.508;8.590;2023-07-29T03:57:57;13.88;;;8.18;;
61250;SDS011;47126;47.508;8.590;2023-07-29T04:00:23;16.08;;;8.05;;
61250;SDS011;47126;47.508;8.590;2023-07-29T04:02:49;33.58;;;9.15;;
61250;SDS011;47126;47.508;8.590;2023-07-29T04:05:15;19.65;;;8.43;;
61250;SDS011;47126;47.508;8.590;2023-07-29T04:07:41;13.32;;;7.32;;
61250;SDS011;47126;47.508;8.590;2023-07-29T04:10:08;15.80;;;7.80;;
61250;SDS011;47126;47.508;8.590;2023-07-29T04:12:34;13.43;;;7.70;;
61250;SDS011;47126;47.508;8.590;2023-07-29T04:15:00;18.15;;;9.32;;
61250;SDS011;47126;47.508;8.590;2023-07-29T04:17:26;17.90;;;8.70;;
61250;SDS011;47126;47.508;8.590;2023-07-29T04:19:52;15.00;;;7.97;;
61250;SDS011;47126;47.508;8.590;2023-07-29T04:22:18;14.20;;;8.05;;
61250;SDS011;47126;47.508;8.590;2023-07-29T04:24:44;15.90;;;8.27;;
61250;SDS011;47126;47.508;8.590;2023-07-29T04:27:10;13.75;;;7.55;;
61250;SDS011;47126;47.508;8.590;2023-07-29T04:29:36;11.57;;;6.93;;
61250;SDS011;47126;47.508;8.590;2023-07-29T04:32:02;11.73;;;6.63;;
61250;SDS011;47126;47.508;8.590;2023-07-29T04:34:28;12.80;;;7.50;;
61250;SDS011;47126;47.508;8.590;2023-07-29T04:36:54;14.90;;;9.55;;
61250;SDS011;47126;47.508;8.590;2023-07-29T04:39:20;15.55;;;8.57;;
61250;SDS011;47126;47.508;8.590;2023-07-29T04:41:46;13.45;;;8.57;;
61250;SDS011;47126;47.508;8.590;2023-07-29T04:44:12;16.33;;;8.70;;
61250;SDS011;47126;47.508;8.590;2023-07-29T04:46:38;15.00;;;8.55;;
61250;SDS011;47126;47.508;8.590;2023-07-29T04:49:04;14.02;;;8.52;;
61250;SDS011;47126;47.508;8.590;2023-07-29T04:51:31;13.70;;;8.10;;
61250;SDS011;47126;47.508;8.590;2023-07-29T04:53:57;13.30;;;8.55;;
61250;SDS011;47126;47.508;8.590;2023-07-29T04:56:23;12.32;;;8.13;;
61250;SDS011;47126;47.508;8.590;2023-07-29T04:58:49;12.77;;;8.38;;
61250;SDS011;47126;47.508;8.590;2023-07-29T05:01:15;14.95;;;7.90;;
61250;SDS011;47126;47.508;8.590;2023-07-29T05:03:41;13.05;;;7.85;;
61250;SDS011;47126;47.508;8.590;2023-07-29T05:06:07;12.93;;;7.85;;
61250;SDS011;47126;47.508;8.590;2023-07-29T05:08:33;11.57;;;7.50;;
61250;SDS011;47126;47.508;8.590;2023-07-29T05:10:59;13.82;;;7.78;;
61250;SDS011;47126;47.508;8.590;2023-07-29T05:13:25;14.73;;;8.43;;
61250;SDS011;47126;47.508;8.590;2023-07-29T05:15:51;13.55;;;8.20;;
61250;SDS011;47126;47.508;8.590;2023-07-29T05:18:17;16.52;;;7.90;;
61250;SDS011;47126;47.508;8.590;2023-07-29T05:20:43;12.52;;;8.40;;
61250;SDS011;47126;47.508;8.590;2023-07-29T05:23:09;15.32;;;9.23;;
61250;SDS011;47126;47.508;8.590;2023-07-29T05:25:35;15.32;;;8.60;;
61250;SDS011;47126;47.508;8.590;2023-07-29T05:28:02;12.13;;;7.72;;
61250;SDS011;47126;47.508;8.590;2023-07-29T05:30:28;13.48;;;7.63;;
61250;SDS011;47126;47.508;8.590;2023-07-29T05:32:56;11.50;;;7.30;;
61250;SDS011;47126;47.508;8.590;2023-07-29T05:35:22;13.18;;;6.80;;
61250;SDS011;47126;47.508;8.590;2023-07-29T05:37:48;13.00;;;6.75;;
61250;SDS011;47126;47.508;8.590;2023-07-29T05:40:14;14.38;;;7.53;;
61250;SDS011;47126;47.508;8.590;2023-07-29T05:42:40;14.10;;;7.13;;
61250;SDS011;47126;47.508;8.590;2023-07-29T05:45:07;10.48;;;6.85;;
61250;SDS011;47126;47.508;8.590;2023-07-29T05:47:33;15.35;;;7.25;;
61250;SDS011;47126;47.508;8.590;2023-07-29T05:49:59;12.38;;;7.32;;
61250;SDS011;47126;47.508;8.590;2023-07-29T05:52:29;13.82;;;8.15;;
61250;SDS011;47126;47.508;8.590;2023-07-29T05:54:55;13.43;;;7.70;;
61250;SDS011;47126;47.508;8.590;2023-07-29T05:57:21;10.50;;;6.65;;
61250;SDS011;47126;47.508;8.590;2023-07-29T05:59:47;9.85;;;6.22;;
61250;SDS011;47126;47.508;8.590;2023-07-29T06:02:13;13.95;;;7.95;;
61250;SDS011;47126;47.508;8.590;2023-07-29T06:04:39;10.65;;;6.32;;
61250;SDS011;47126;47.508;8.590;2023-07-29T06:07:05;9.95;;;5.93;;
61250;SDS011;47126;47.508;8.590;2023-07-29T06:09:31;9.63;;;5.40;;
61250;SDS011;47126;47.508;8.590;2023-07-29T06:11:57;9.15;;;5.28;;
61250;SDS011;47126;47.508;8.590;2023-07-29T06:14:23;11.13;;;5.60;;
61250;SDS011;47126;47.508;8.590;2023-07-29T06:16:49;10.07;;;5.68;;
61250;SDS011;47126;47.508;8.590;2023-07-29T06:19:15;9.82;;;5.43;;
61250;SDS011;47126;47.508;8.590;2023-07-29T06:21:41;8.70;;;5.18;;
61250;SDS011;47126;47.508;8.590;2023-07-29T06:24:07;9.88;;;5.15;;
61250;SDS011;47126;47.508;8.590;2023-07-29T06:26:33;12.68;;;5.00;;
61250;SDS011;47126;47.508;8.590;2023-07-29T06:28:59;8.02;;;5.22;;
61250;SDS011;47126;47.508;8.590;2023-07-29T06:31:25;9.60;;;5.03;;
61250;SDS011;47126;47.508;8.590;2023-07-29T06:33:51;10.30;;;5.28;;
61250;SDS011;47126;47.508;8.590;2023-07-29T06:36:19;11.07;;;5.03;;
61250;SDS011;47126;47.508;8.590;2023-07-29T06:38:45;11.07;;;4.63;;
61250;SDS011;47126;47.508;8.590;2023-07-29T06:41:11;9.48;;;5.25;;
61250;SDS011;47126;47.508;8.590;2023-07-29T06:43:37;8.35;;;4.65;;
61250;SDS011;47126;47.508;8.590;2023-07-29T06:46:03;8.77;;;4.63;;
61250;SDS011;47126;47.508;8.590;2023-07-29T06:48:29;8.60;;;4.82;;
61250;SDS011;47126;47.508;8.590;2023-07-29T06:50:55;8.30;;;4.75;;
61250;SDS011;47126;47.508;8.590;2023-07-29T06:53:25;7.10;;;4.40;;
61250;SDS011;47126;47.508;8.590;2023-07-29T06:55:51;10.38;;;5.43;;
61250;SDS011;47126;47.508;8.590;2023-07-29T06:58:17;8.02;;;4.47;;
61250;SDS011;47126;47.508;8.590;2023-07-29T07:00:43;9.48;;;4.80;;
61250;SDS011;47126;47.508;8.590;2023-07-29T07:03:09;9.10;;;4.78;;
61250;SDS011;47126;47.508;8.590;2023-07-29T07:05:35;8.82;;;4.93;;
61250;SDS011;47126;47.508;8.590;2023-07-29T07:08:01;10.80;;;5.03;;
61250;SDS011;47126;47.508;8.590;2023-07-29T07:10:28;8.00;;;4.60;;
61250;SDS011;47126;47.508;8.590;2023-07-29T07:12:54;9.60;;;4.80;;
61250;SDS011;47126;47.508;8.590;2023-07-29T07:15:20;11.63;;;5.13;;
61250;SDS011;47126;47.508;8.590;2023-07-29T07:17:47;8.63;;;4.30;;
61250;SDS011;47126;47.508;8.590;2023-07-29T07:20:16;8.48;;;4.90;;
61250;SDS011;47126;47.508;8.590;2023-07-29T07:22:42;10.27;;;5.10;;
61250;SDS011;47126;47.508;8.590;2023-07-29T07:25:08;8.07;;;4.90;;
61250;SDS011;47126;47.508;8.590;2023-07-29T07:27:34;15.82;;;5.47;;
61250;SDS011;47126;47.508;8.590;2023-07-29T07:30:00;7.53;;;4.53;;
61250;SDS011;47126;47.508;8.590;2023-07-29T07:32:26;8.77;;;5.13;;
61250;SDS011;47126;47.508;8.590;2023-07-29T07:34:52;9.25;;;5.05;;
61250;SDS011;47126;47.508;8.590;2023-07-29T07:37:18;7.43;;;4.45;;
61250;SDS011;47126;47.508;8.590;2023-07-29T07:39:44;8.40;;;4.68;;
61250;SDS011;47126;47.508;8.590;2023-07-29T07:42:10;9.48;;;4.93;;
61250;SDS011;47126;47.508;8.590;2023-07-29T07:44:38;12.30;;;4.95;;
61250;SDS011;47126;47.508;8.590;2023-07-29T07:47:04;7.47;;;4.78;;
61250;SDS011;47126;47.508;8.590;2023-07-29T07:49:30;9.20;;;4.47;;
61250;SDS011;47126;47.508;8.590;2023-07-29T07:51:56;9.35;;;4.93;;
61250;SDS011;47126;47.508;8.590;2023-07-29T07:54:22;8.77;;;4.25;;
61250;SDS011;47126;47.508;8.590;2023-07-29T07:56:48;9.13;;;4.78;;
61250;SDS011;47126;47.508;8.590;2023-07-29T07:59:14;7.43;;;4.43;;
61250;SDS011;47126;47.508;8.590;2023-07-29T08:01:40;8.75;;;4.72;;
61250;SDS011;47126;47.508;8.590;2023-07-29T08:04:06;8.15;;;4.90;;
61250;SDS011;47126;47.508;8.590;2023-07-29T08:06:32;8.07;;;4.93;;
61250;SDS011;47126;47.508;8.590;2023-07-29T08:08:58;11.13;;;5.28;;
61250;SDS011;47126;47.508;8.590;2023-07-29T08:11:25;7.25;;;4.40;;
61250;SDS011;47126;47.508;8.590;2023-07-29T08:13:51;7.03;;;4.60;;
61250;SDS011;47126;47.508;8.590;2023-07-29T08:16:17;9.52;;;4.75;;
61250;SDS011;47126;47.508;8.590;2023-07-29T08:18:43;9.25;;;5.65;;
61250;SDS011;47126;47.508;8.590;2023-07-29T08:21:09;9.05;;;4.90;;
61250;SDS011;47126;47.508;8.590;2023-07-29T08:23:35;10.70;;;4.95;;
61250;SDS011;47126;47.508;8.590;2023-07-29T08:26:03;9.77;;;4.97;;
61250;SDS011;47126;47.508;8.590;2023-07-29T08:28:36;8.13;;;4.50;;
61250;SDS011;47126;47.508;8.590;2023-07-29T08:31:03;7.82;;;4.20;;
61250;SDS011;47126;47.508;8.590;2023-07-29T08:33:29;7.13;;;4.30;;
61250;SDS011;47126;47.508;8.590;2023-07-29T08:35:55;6.75;;;4.22;;
61250;SDS011;47126;47.508;8.590;2023-07-29T08:38:21;7.90;;;4.43;;
61250;SDS011;47126;47.508;8.590;2023-07-29T08:43:20;8.55;;;4.85;;
61250;SDS011;47126;47.508;8.590;2023-07-29T08:45:49;9.43;;;4.60;;
61250;SDS011;47126;47.508;8.590;2023-07-29T08:48:17;9.25;;;4.18;;
61250;SDS011;47126;47.508;8.590;2023-07-29T08:50:45;7.18;;;4.32;;
61250;SDS011;47126;47.508;8.590;2023-07-29T08:53:11;7.63;;;3.83;;
61250;SDS011;47126;47.508;8.590;2023-07-29T08:55:38;10.27;;;3.92;;
61250;SDS011;47126;47.508;8.590;2023-07-29T08:58:04;7.55;;;3.88;;
61250;SDS011;47126;47.508;8.590;2023-07-29T09:00:30;6.55;;;3.78;;
61250;SDS011;47126;47.508;8.590;2023-07-29T09:02:57;5.53;;;3.70;;
61250;SDS011;47126;47.508;8.590;2023-07-29T09:05:28;8.73;;;4.13;;
61250;SDS011;47126;47.508;8.590;2023-07-29T09:07:54;6.78;;;3.90;;
61250;SDS011;47126;47.508;8.590;2023-07-29T09:10:21;6.32;;;3.58;;
61250;SDS011;47126;47.508;8.590;2023-07-29T09:12:48;7.70;;;3.60;;
61250;SDS011;47126;47.508;8.590;2023-07-29T09:15:25;7.47;;;3.50;;
61250;SDS011;47126;47.508;8.590;2023-07-29T09:17:52;6.95;;;3.33;;
61250;SDS011;47126;47.508;8.590;2023-07-29T09:20:28;4.63;;;3.30;;
61250;SDS011;47126;47.508;8.590;2023-07-29T09:22:55;5.82;;;3.28;;
61250;SDS011;47126;47.508;8.590;2023-07-29T09:25:24;5.90;;;3.15;;
61250;SDS011;47126;47.508;8.590;2023-07-29T09:27:50;5.32;;;3.17;;
61250;SDS011;47126;47.508;8.590;2023-07-29T09:30:16;6.15;;;2.75;;
61250;SDS011;47126;47.508;8.590;2023-07-29T09:32:42;7.00;;;3.17;;
61250;SDS011;47126;47.508;8.590;2023-07-29T09:35:12;7.88;;;3.00;;
61250;SDS011;47126;47.508;8.590;2023-07-29T09:37:38;4.63;;;2.83;;
61250;SDS011;47126;47.508;8.590;2023-07-29T09:40:05;3.78;;;2.50;;
61250;SDS011;47126;47.508;8.590;2023-07-29T09:42:31;3.97;;;2.60;;
61250;SDS011;47126;47.508;8.590;2023-07-29T09:44:58;3.42;;;2.45;;
61250;SDS011;47126;47.508;8.590;2023-07-29T09:47:24;4.60;;;2.50;;
61250;SDS011;47126;47.508;8.590;2023-07-29T09:49:51;3.70;;;2.50;;
61250;SDS011;47126;47.508;8.590;2023-07-29T09:52:18;3.83;;;2.72;;
61250;SDS011;47126;47.508;8.590;2023-07-29T09:54:44;3.70;;;2.42;;
61250;SDS011;47126;47.508;8.590;2023-07-29T09:57:14;5.22;;;2.22;;
61250;SDS011;47126;47.508;8.590;2023-07-29T10:02:08;5.18;;;2.78;;
61250;SDS011;47126;47.508;8.590;2023-07-29T10:04:35;3.78;;;2.60;;
61250;SDS011;47126;47.508;8.590;2023-07-29T10:07:01;5.22;;;2.85;;
61250;SDS011;47126;47.508;8.590;2023-07-29T10:09:28;4.47;;;2.72;;
61250;SDS011;47126;47.508;8.590;2023-07-29T10:11:54;5.97;;;3.00;;
61250;SDS011;47126;47.508;8.590;2023-07-29T10:14:21;5.25;;;2.50;;
61250;SDS011;47126;47.508;8.590;2023-07-29T10:16:47;4.05;;;2.53;;
61250;SDS011;47126;47.508;8.590;2023-07-29T10:19:14;4.03;;;2.42;;
61250;SDS011;47126;47.508;8.590;2023-07-29T10:21:43;7.10;;;2.92;;
61250;SDS011;47126;47.508;8.590;2023-07-29T10:24:12;4.82;;;2.63;;
61250;SDS011;47126;47.508;8.590;2023-07-29T10:26:41;5.22;;;3.08;;
61250;SDS011;47126;47.508;8.590;2023-07-29T10:29:08;5.75;;;3.08;;
61250;SDS011;47126;47.508;8.590;2023-07-29T10:31:38;5.15;;;2.80;;
61250;SDS011;47126;47.508;8.590;2023-07-29T10:34:06;6.72;;;3.05;;
61250;SDS011;47126;47.508;8.590;2023-07-29T10:36:32;6.35;;;3.22;;
61250;SDS011;47126;47.508;8.590;2023-07-29T10:38:58;5.85;;;2.85;;
61250;SDS011;47126;47.508;8.590;2023-07-29T10:41:41;5.43;;;2.60;;
61250;SDS011;47126;47.508;8.590;2023-07-29T10:44:45;3.75;;;2.50;;
61250;SDS011;47126;47.508;8.590;2023-07-29T10:47:12;5.10;;;2.30;;
61250;SDS011;47126;47.508;8.590;2023-07-29T10:49:41;4.78;;;2.45;;
61250;SDS011;47126;47.508;8.590;2023-07-29T10:52:07;4.20;;;2.20;;
61250;SDS011;47126;47.508;8.590;2023-07-29T10:54:41;3.03;;;2.05;;
61250;SDS011;47126;47.508;8.590;2023-07-29T10:57:07;5.72;;;2.65;;
61250;SDS011;47126;47.508;8.590;2023-07-29T10:59:34;4.05;;;2.47;;
61250;SDS011;47126;47.508;8.590;2023-07-29T11:02:00;6.10;;;2.40;;
61250;SDS011;47126;47.508;8.590;2023-07-29T11:04:27;5.75;;;2.70;;
61250;SDS011;47126;47.508;8.590;2023-07-29T11:14:57;4.57;;;2.95;;
61250;SDS011;47126;47.508;8.590;2023-07-29T11:17:23;7.75;;;2.70;;
61250;SDS011;47126;47.508;8.590;2023-07-29T11:19:49;5.97;;;3.40;;
61250;SDS011;47126;47.508;8.590;2023-07-29T11:22:15;8.38;;;3.90;;
61250;SDS011;47126;47.508;8.590;2023-07-29T11:24:42;5.72;;;3.35;;
61250;SDS011;47126;47.508;8.590;2023-07-29T11:27:11;6.07;;;2.95;;
61250;SDS011;47126;47.508;8.590;2023-07-29T11:29:37;6.17;;;2.60;;
61250;SDS011;47126;47.508;8.590;2023-07-29T11:32:03;6.32;;;3.20;;
61250;SDS011;47126;47.508;8.590;2023-07-29T11:34:32;9.02;;;3.35;;
61250;SDS011;47126;47.508;8.590;2023-07-29T11:36:58;6.07;;;3.45;;
61250;SDS011;47126;47.508;8.590;2023-07-29T11:39:24;7.68;;;3.28;;
61250;SDS011;47126;47.508;8.590;2023-07-29T11:41:50;4.60;;;3.03;;
61250;SDS011;47126;47.508;8.590;2023-07-29T11:44:17;7.05;;;3.20;;
61250;SDS011;47126;47.508;8.590;2023-07-29T11:46:43;8.48;;;3.33;;
61250;SDS011;47126;47.508;8.590;2023-07-29T11:49:09;5.18;;;3.50;;
61250;SDS011;47126;47.508;8.590;2023-07-29T11:51:36;12.32;;;3.78;;
61250;SDS011;47126;47.508;8.590;2023-07-29T11:54:02;10.80;;;3.55;;
61250;SDS011;47126;47.508;8.590;2023-07-29T11:56:28;4.13;;;2.83;;
61250;SDS011;47126;47.508;8.590;2023-07-29T11:58:57;5.10;;;2.90;;
61250;SDS011;47126;47.508;8.590;2023-07-29T12:01:24;5.70;;;3.00;;
61250;SDS011;47126;47.508;8.590;2023-07-29T12:03:50;9.80;;;2.78;;
61250;SDS011;47126;47.508;8.590;2023-07-29T12:06:16;4.40;;;2.95;;
61250;SDS011;47126;47.508;8.590;2023-07-29T12:08:42;5.35;;;3.03;;
61250;SDS011;47126;47.508;8.590;2023-07-29T12:11:09;5.28;;;3.10;;
61250;SDS011;47126;47.508;8.590;2023-07-29T12:13:38;5.82;;;3.25;;
61250;SDS011;47126;47.508;8.590;2023-07-29T12:16:04;4.55;;;2.83;;
61250;SDS011;47126;47.508;8.590;2023-07-29T12:18:31;4.80;;;3.25;;
61250;SDS011;47126;47.508;8.590;2023-07-29T12:20:58;7.75;;;4.00;;
61250;SDS011;47126;47.508;8.590;2023-07-29T12:23:24;8.35;;;3.80;;
61250;SDS011;47126;47.508;8.590;2023-07-29T12:25:59;5.40;;;3.30;;
61250;SDS011;47126;47.508;8.590;2023-07-29T12:28:25;9.35;;;3.83;;
61250;SDS011;47126;47.508;8.590;2023-07-29T12:30:55;7.57;;;4.15;;
61250;SDS011;47126;47.508;8.590;2023-07-29T12:33:31;9.83;;;3.60;;
61250;SDS011;47126;47.508;8.590;2023-07-29T12:35:57;8.25;;;3.55;;
61250;SDS011;47126;47.508;8.590;2023-07-29T12:38:27;8.95;;;4.38;;
61250;SDS011;47126;47.508;8.590;2023-07-29T12:40:53;7.37;;;3.73;;
61250;SDS011;47126;47.508;8.590;2023-07-29T12:43:19;8.70;;;3.90;;
61250;SDS011;47126;47.508;8.590;2023-07-29T12:45:45;6.85;;;2.92;;
61250;SDS011;47126;47.508;8.590;2023-07-29T12:48:11;6.65;;;3.40;;
61250;SDS011;47126;47.508;8.590;2023-07-29T12:50:38;7.90;;;3.00;;
61250;SDS011;47126;47.508;8.590;2023-07-29T12:53:04;7.80;;;3.33;;
61250;SDS011;47126;47.508;8.590;2023-07-29T12:55:30;5.80;;;2.92;;
61250;SDS011;47126;47.508;8.590;2023-07-29T12:57:56;5.85;;;3.08;;
61250;SDS011;47126;47.508;8.590;2023-07-29T13:00:24;6.05;;;3.13;;
61250;SDS011;47126;47.508;8.590;2023-07-29T13:02:50;9.38;;;3.72;;
61250;SDS011;47126;47.508;8.590;2023-07-29T13:05:16;7.43;;;3.40;;
61250;SDS011;47126;47.508;8.590;2023-07-29T13:07:42;7.45;;;4.00;;
61250;SDS011;47126;47.508;8.590;2023-07-29T13:10:09;8.02;;;4.60;;
61250;SDS011;47126;47.508;8.590;2023-07-29T13:12:35;5.95;;;3.05;;
61250;SDS011;47126;47.508;8.590;2023-07-29T13:15:01;7.30;;;3.33;;
61250;SDS011;47126;47.508;8.590;2023-07-29T13:17:27;4.90;;;2.65;;
61250;SDS011;47126;47.508;8.590;2023-07-29T13:19:53;7.38;;;3.55;;
61250;SDS011;47126;47.508;8.590;2023-07-29T13:22:20;6.55;;;3.33;;
61250;SDS011;47126;47.508;8.590;2023-07-29T13:24:46;6.93;;;3.38;;
61250;SDS011;47126;47.508;8.590;2023-07-29T13:27:12;8.38;;;3.67;;
61250;SDS011;47126;47.508;8.590;2023-07-29T13:29:39;5.65;;;3.47;;
61250;SDS011;47126;47.508;8.590;2023-07-29T13:32:05;7.65;;;3.35;;
61250;SDS011;47126;47.508;8.590;2023-07-29T13:34:31;6.88;;;3.60;;
61250;SDS011;47126;47.508;8.590;2023-07-29T13:36:59;4.30;;;2.22;;
61250;SDS011;47126;47.508;8.590;2023-07-29T13:39:25;4.65;;;2.85;;
61250;SDS011;47126;47.508;8.590;2023-07-29T13:41:52;8.57;;;3.05;;
61250;SDS011;47126;47.508;8.590;2023-07-29T13:44:18;6.45;;;3.28;;
61250;SDS011;47126;47.508;8.590;2023-07-29T13:46:44;5.40;;;3.17;;
61250;SDS011;47126;47.508;8.590;2023-07-29T13:49:10;6.43;;;3.25;;
61250;SDS011;47126;47.508;8.590;2023-07-29T13:51:36;5.90;;;3.65;;
61250;SDS011;47126;47.508;8.590;2023-07-29T13:54:02;4.63;;;2.50;;
61250;SDS011;47126;47.508;8.590;2023-07-29T13:56:28;5.57;;;3.03;;
61250;SDS011;47126;47.508;8.590;2023-07-29T13:58:54;4.13;;;2.60;;
61250;SDS011;47126;47.508;8.590;2023-07-29T14:01:20;6.38;;;3.20;;
61250;SDS011;47126;47.508;8.590;2023-07-29T14:03:46;4.30;;;2.83;;
61250;SDS011;47126;47.508;8.590;2023-07-29T14:06:12;5.53;;;2.88;;
61250;SDS011;47126;47.508;8.590;2023-07-29T14:08:38;5.65;;;3.20;;
61250;SDS011;47126;47.508;8.590;2023-07-29T14:11:06;4.70;;;2.75;;
61250;SDS011;47126;47.508;8.590;2023-07-29T14:13:32;3.88;;;2.50;;
61250;SDS011;47126;47.508;8.590;2023-07-29T14:16:01;4.93;;;2.65;;
61250;SDS011;47126;47.508;8.590;2023-07-29T14:18:28;4.70;;;3.20;;
61250;SDS011;47126;47.508;8.590;2023-07-29T14:20:54;5.00;;;2.80;;
61250;SDS011;47126;47.508;8.590;2023-07-29T14:23:20;4.65;;;2.70;;
61250;SDS011;47126;47.508;8.590;2023-07-29T14:25:46;5.22;;;2.78;;
61250;SDS011;47126;47.508;8.590;2023-07-29T14:28:12;5.10;;;3.00;;
61250;SDS011;47126;47.508;8.590;2023-07-29T14:30:38;4.68;;;2.58;;
61250;SDS011;47126;47.508;8.590;2023-07-29T14:33:06;7.30;;;3.10;;
61250;SDS011;47126;47.508;8.590;2023-07-29T14:35:32;5.93;;;3.22;;
61250;SDS011;47126;47.508;8.590;2023-07-29T14:37:58;4.55;;;3.05;;
61250;SDS011;47126;47.508;8.590;2023-07-29T14:40:24;6.43;;;3.35;;
61250;SDS011;47126;47.508;8.590;2023-07-29T14:42:50;5.38;;;3.38;;
61250;SDS011;47126;47.508;8.590;2023-07-29T14:45:16;10.32;;;3.53;;
61250;SDS011;47126;47.508;8.590;2023-07-29T14:47:42;7.40;;;3.50;;
61250;SDS011;47126;47.508;8.590;2023-07-29T14:50:08;5.95;;;3.40;;
61250;SDS011;47126;47.508;8.590;2023-07-29T14:52:34;5.32;;;3.47;;
61250;SDS011;47126;47.508;8.590;2023-07-29T14:55:00;5.40;;;2.80;;
61250;SDS011;47126;47.508;8.590;2023-07-29T14:57:26;9.13;;;3.38;;